Time;durP1;ratioP1;P1;durP2;ratioP2;P2;SDS_P1;SDS_P2;PMS_P1;PMS_P2;Temp;Humidity;BMP_temperature;BMP_pressure;BME280_temperature;BME280_humidity;BME280_pressure;Samples;Min_cycle;Max_cycle;Signal;HPM_P1;HPM_P2
2022/05/27 00:02:06;;;;;;;;;;;20.40;63.90;;;;;;5038193;28;19916;-86
2022/05/27 00:04:31;;;;;;;;;;;20.40;64.00;;;;;;5041160;28;19955;-86
2022/05/27 00:06:57;;;;;;;;;;;20.40;64.00;;;;;;5058419;28;19935;-86
2022/05/27 00:09:23;;;;;;;;;;;20.30;64.10;;;;;;5057254;28;19919;-87
2022/05/27 00:11:49;;;;;;;;;;;20.30;64.20;;;;;;5056067;28;19952;-87
2022/05/27 00:14:14;;;;;;;;;;;20.30;64.20;;;;;;5038068;28;19936;-87
2022/05/27 00:16:40;;;;;;;;;;;20.30;64.20;;;;;;5055214;28;19913;-86
2022/05/27 00:19:05;;;;;;;;;;;20.30;64.30;;;;;;5036784;28;19925;-87
2022/05/27 00:21:30;;;;;;;;;;;20.30;64.30;;;;;;5036646;28;19924;-87
2022/05/27 00:23:56;;;;;;;;;;;20.20;64.30;;;;;;5055189;28;20038;-87
2022/05/27 00:26:21;;;;;;;;;;;20.20;64.50;;;;;;5046171;28;19913;-87
2022/05/27 00:28:47;;;;;;;;;;;20.10;64.50;;;;;;5049207;28;19991;-87
2022/05/27 00:31:13;;;;;;;;;;;20.10;64.60;;;;;;5054671;28;19917;-87
2022/05/27 00:33:39;;;;;;;;;;;20.10;64.60;;;;;;5036934;28;20337;-87
2022/05/27 00:36:08;;;;;;;;;;;20.10;64.50;;;;;;5047959;28;19928;-86
2022/05/27 00:38:34;;;;;;;;;;;20.00;64.60;;;;;;5031630;28;19951;-87
2022/05/27 00:40:59;;;;;;;;;;;20.00;64.70;;;;;;5036525;28;20297;-86
2022/05/27 00:43:25;;;;;;;;;;;20.00;64.70;;;;;;5063181;28;19913;-87
2022/05/27 00:45:58;;;;;;;;;;;20.00;64.80;;;;;;5045047;28;20280;-87
2022/05/27 00:48:25;;;;;;;;;;;20.00;64.90;;;;;;5055344;28;19917;-87
2022/05/27 00:50:51;;;;;;;;;;;20.00;64.80;;;;;;5055899;28;20301;-87
2022/05/27 00:53:19;;;;;;;;;;;20.00;64.90;;;;;;5031227;28;20388;-87
2022/05/27 00:55:47;;;;;;;;;;;20.00;64.80;;;;;;5055968;28;20384;-87
2022/05/27 00:58:17;;;;;;;;;;;20.00;64.80;;;;;;5038291;28;19920;-87
2022/05/27 01:00:42;;;;;;;;;;;20.00;64.90;;;;;;5038431;28;20081;-88
2022/05/27 01:03:11;;;;;;;;;;;19.90;65.00;;;;;;5037726;28;20356;-87
2022/05/27 01:05:39;;;;;;;;;;;19.90;65.00;;;;;;5057529;28;19917;-87
2022/05/27 01:08:05;;;;;;;;;;;19.90;65.00;;;;;;5034402;28;19967;-87
2022/05/27 01:10:37;;;;;;;;;;;19.90;64.80;;;;;;5055616;28;19939;-87
2022/05/27 01:13:05;;;;;;;;;;;19.80;64.80;;;;;;5055568;28;19912;-87
2022/05/27 01:15:40;;;;;;;;;;;19.80;64.90;;;;;;5054496;28;19917;-87
2022/05/27 01:20:18;;;;;;;;;;;19.80;64.80;;;;;;5054097;28;19948;-87
2022/05/27 01:21:15;;;;;;;;;;;19.70;64.90;;;;;;5037278;28;19921;-86
2022/05/27 01:23:41;;;;;;;;;;;19.70;64.90;;;;;;5033474;28;19913;-86
2022/05/27 01:26:34;;;;;;;;;;;19.60;65.00;;;;;;5046289;28;19923;-87
2022/05/27 01:29:21;;;;;;;;;;;19.60;64.90;;;;;;5038822;28;19912;-87
2022/05/27 01:31:53;;;;;;;;;;;19.60;65.10;;;;;;5054484;28;19913;-86
2022/05/27 01:34:23;;;;;;;;;;;19.50;65.20;;;;;;5053948;28;19924;-87
2022/05/27 01:37:07;;;;;;;;;;;19.50;65.20;;;;;;5036470;28;19920;-87
2022/05/27 01:39:43;;;;;;;;;;;19.50;65.20;;;;;;5042989;28;19925;-86
2022/05/27 01:42:19;;;;;;;;;;;19.50;65.30;;;;;;5036003;28;20000;-87
2022/05/27 01:44:57;;;;;;;;;;;19.50;65.30;;;;;;5054415;28;20369;-87
2022/05/27 01:47:43;;;;;;;;;;;19.50;65.30;;;;;;5035477;28;19920;-87
2022/05/27 01:50:18;;;;;;;;;;;19.40;65.40;;;;;;5011583;28;19917;-87
2022/05/27 01:52:46;;;;;;;;;;;19.50;65.30;;;;;;5034537;28;19917;-88
2022/05/27 01:55:12;;;;;;;;;;;19.50;65.30;;;;;;5037580;28;19955;-87
2022/05/27 01:57:42;;;;;;;;;;;19.50;65.40;;;;;;5035725;28;20356;-87
2022/05/27 02:00:12;;;;;;;;;;;19.50;65.30;;;;;;5053629;28;19924;-86
2022/05/27 02:02:44;;;;;;;;;;;19.50;65.40;;;;;;5053487;28;19919;-87
2022/05/27 02:05:18;;;;;;;;;;;19.40;65.40;;;;;;5053251;28;19917;-88
2022/05/27 02:07:43;;;;;;;;;;;19.40;65.50;;;;;;5027491;28;19917;-87
2022/05/27 02:10:13;;;;;;;;;;;19.40;65.40;;;;;;5053429;28;20003;-87
2022/05/27 02:12:42;;;;;;;;;;;19.30;65.40;;;;;;5054558;28;19912;-87
2022/05/27 02:15:07;;;;;;;;;;;19.30;65.50;;;;;;5038420;28;20341;-87
2022/05/27 02:17:41;;;;;;;;;;;19.30;65.60;;;;;;5043580;28;19913;-87
2022/05/27 02:20:10;;;;;;;;;;;19.30;65.50;;;;;;5046998;28;20377;-87
2022/05/27 02:22:38;;;;;;;;;;;19.30;65.50;;;;;;5034925;28;19912;-87
2022/05/27 02:25:10;;;;;;;;;;;19.30;65.50;;;;;;5053083;28;19924;-87
2022/05/27 02:27:41;;;;;;;;;;;19.30;65.60;;;;;;5035478;28;19912;-86
2022/05/27 02:30:11;;;;;;;;;;;19.20;65.60;;;;;;5049087;28;19952;-87
2022/05/27 02:32:48;;;;;;;;;;;19.20;65.30;;;;;;5052749;28;20439;-86
2022/05/27 02:35:19;;;;;;;;;;;19.20;65.00;;;;;;5052880;28;20379;-86
2022/05/27 02:37:50;;;;;;;;;;;19.10;64.60;;;;;;5052464;28;19932;-86
2022/05/27 02:40:20;;;;;;;;;;;19.00;64.70;;;;;;5046528;28;19935;-86
2022/05/27 02:43:04;;;;;;;;;;;19.00;64.80;;;;;;5035027;28;19912;-86
2022/05/27 02:45:31;;;;;;;;;;;18.80;64.70;;;;;;5041891;28;20297;-86
2022/05/27 02:48:19;;;;;;;;;;;18.80;64.70;;;;;;5052598;28;19912;-87
2022/05/27 02:50:58;;;;;;;;;;;18.70;64.70;;;;;;5049225;28;19966;-86
2022/05/27 02:53:38;;;;;;;;;;;18.70;64.90;;;;;;5051026;28;19971;-87
2022/05/27 02:56:39;;;;;;;;;;;18.70;64.90;;;;;;5052401;28;19920;-88
2022/05/27 02:59:05;;;;;;;;;;;18.70;65.00;;;;;;4994135;28;20025;-87
2022/05/27 03:01:31;;;;;;;;;;;18.60;65.10;;;;;;5043768;28;19924;-87
2022/05/27 03:03:56;;;;;;;;;;;18.60;65.10;;;;;;5040096;28;19966;-87
2022/05/27 03:06:28;;;;;;;;;;;18.60;65.10;;;;;;5036125;28;20399;-86
2022/05/27 03:09:03;;;;;;;;;;;18.70;65.10;;;;;;5055967;28;19912;-86
2022/05/27 03:11:28;;;;;;;;;;;18.70;65.20;;;;;;5054013;28;19991;-86
2022/05/27 03:14:08;;;;;;;;;;;18.70;65.30;;;;;;5056028;28;19912;-86
2022/05/27 03:16:34;;;;;;;;;;;18.70;65.30;;;;;;5037992;28;19917;-86
2022/05/27 03:19:07;;;;;;;;;;;18.60;65.20;;;;;;5037730;28;19915;-86
2022/05/27 03:21:47;;;;;;;;;;;18.70;65.30;;;;;;5056355;28;20057;-86
2022/05/27 03:24:15;;;;;;;;;;;18.70;65.20;;;;;;5055741;28;19920;-86
2022/05/27 03:26:55;;;;;;;;;;;18.60;65.20;;;;;;5037439;28;19912;-86
2022/05/27 03:29:25;;;;;;;;;;;18.70;65.30;;;;;;5054779;28;20289;-86
2022/05/27 03:31:58;;;;;;;;;;;18.60;65.20;;;;;;5056120;28;19913;-86
2022/05/27 03:34:28;;;;;;;;;;;18.60;65.30;;;;;;5056028;28;20026;-86
2022/05/27 03:36:59;;;;;;;;;;;18.60;65.40;;;;;;5037333;28;19920;-87
2022/05/27 03:39:38;;;;;;;;;;;18.60;65.40;;;;;;5047229;28;19925;-86
2022/05/27 03:42:04;;;;;;;;;;;18.60;65.40;;;;;;5038208;28;20007;-86
2022/05/27 03:44:30;;;;;;;;;;;18.60;65.50;;;;;;5055673;28;19936;-86
2022/05/27 03:46:57;;;;;;;;;;;18.60;65.40;;;;;;5036966;28;20391;-86
2022/05/27 03:49:22;;;;;;;;;;;18.70;65.40;;;;;;5056307;28;19917;-86
2022/05/27 03:52:06;;;;;;;;;;;18.70;65.40;;;;;;5029609;28;19920;-87
2022/05/27 03:54:33;;;;;;;;;;;18.70;65.40;;;;;;5031090;28;20284;-87
2022/05/27 03:56:58;;;;;;;;;;;18.70;65.50;;;;;;5029046;28;20195;-87
2022/05/27 03:59:24;;;;;;;;;;;18.70;65.60;;;;;;5058657;28;20024;-87
2022/05/27 04:01:51;;;;;;;;;;;18.70;65.60;;;;;;5037158;28;19967;-87
2022/05/27 04:04:19;;;;;;;;;;;18.70;65.60;;;;;;5049538;28;20330;-88
2022/05/27 04:06:48;;;;;;;;;;;18.80;65.60;;;;;;5065289;28;20307;-88
2022/05/27 04:09:15;;;;;;;;;;;18.80;65.60;;;;;;5054345;28;19924;-87
2022/05/27 04:11:41;;;;;;;;;;;18.80;65.60;;;;;;5046985;28;19900;-87
2022/05/27 04:14:06;;;;;;;;;;;18.80;65.60;;;;;;5053511;28;20387;-87
2022/05/27 04:16:32;;;;;;;;;;;18.90;65.50;;;;;;5055030;28;19997;-87
2022/05/27 04:18:58;;;;;;;;;;;18.90;65.50;;;;;;5036509;28;20503;-87
2022/05/27 04:21:24;;;;;;;;;;;19.00;65.50;;;;;;5050054;28;20426;-87
2022/05/27 04:23:49;;;;;;;;;;;19.00;65.50;;;;;;5055597;28;19909;-88
2022/05/27 04:26:15;;;;;;;;;;;19.00;65.50;;;;;;5037749;28;19923;-87
2022/05/27 04:28:41;;;;;;;;;;;19.10;65.50;;;;;;5055089;28;20015;-87
2022/05/27 04:31:06;;;;;;;;;;;19.10;65.40;;;;;;5045731;28;20344;-88
2022/05/27 04:33:32;;;;;;;;;;;19.10;65.30;;;;;;5037437;28;19913;-87
2022/05/27 04:35:58;;;;;;;;;;;19.10;65.30;;;;;;5036887;28;20075;-89
2022/05/27 04:38:24;;;;;;;;;;;19.10;65.30;;;;;;5062021;28;20333;-88
2022/05/27 04:40:49;;;;;;;;;;;19.10;65.30;;;;;;5043825;28;19964;-88
2022/05/27 04:43:15;;;;;;;;;;;19.20;65.50;;;;;;5056850;28;19923;-88
2022/05/27 04:45:41;;;;;;;;;;;19.30;65.70;;;;;;5036597;28;19925;-86
2022/05/27 04:48:06;;;;;;;;;;;19.30;65.70;;;;;;5053372;28;19967;-87
2022/05/27 04:50:32;;;;;;;;;;;19.40;65.80;;;;;;5053738;28;20921;-86
2022/05/27 04:52:58;;;;;;;;;;;19.50;65.90;;;;;;5028384;28;19939;-86
2022/05/27 04:55:24;;;;;;;;;;;19.60;66.10;;;;;;5051010;28;19925;-86
2022/05/27 04:57:51;;;;;;;;;;;19.80;66.30;;;;;;5033998;28;19920;-85
2022/05/27 05:00:18;;;;;;;;;;;19.90;66.40;;;;;;5036104;28;19925;-87
2022/05/27 05:02:44;;;;;;;;;;;20.00;66.60;;;;;;5053217;28;20241;-88
2022/05/27 05:05:10;;;;;;;;;;;20.20;66.90;;;;;;5049150;28;19928;-87
2022/05/27 05:07:37;;;;;;;;;;;20.30;67.10;;;;;;5035747;28;20006;-87
2022/05/27 05:10:04;;;;;;;;;;;20.60;67.70;;;;;;5054068;28;19917;-86
2022/05/27 05:12:29;;;;;;;;;;;20.90;68.30;;;;;;5034936;28;19923;-87
2022/05/27 05:14:55;;;;;;;;;;;21.30;68.60;;;;;;5054624;28;20346;-88
2022/05/27 05:17:21;;;;;;;;;;;21.70;68.50;;;;;;5035449;28;19919;-88
2022/05/27 05:19:47;;;;;;;;;;;22.00;68.00;;;;;;5035950;28;19962;-88
2022/05/27 05:22:13;;;;;;;;;;;22.40;68.20;;;;;;5053490;28;19920;-88
2022/05/27 05:24:39;;;;;;;;;;;22.80;67.90;;;;;;5035360;28;19917;-87
2022/05/27 05:27:04;;;;;;;;;;;23.10;67.20;;;;;;5033759;28;20384;-87
2022/05/27 05:29:30;;;;;;;;;;;23.30;67.10;;;;;;5051508;28;19924;-87
2022/05/27 05:31:55;;;;;;;;;;;23.60;67.70;;;;;;5050700;28;20376;-88
2022/05/27 05:34:21;;;;;;;;;;;23.90;67.50;;;;;;5052404;28;19921;-87
2022/05/27 05:36:46;;;;;;;;;;;24.30;67.70;;;;;;5053085;28;20341;-87
2022/05/27 05:39:12;;;;;;;;;;;24.70;66.80;;;;;;5050949;28;19920;-88
2022/05/27 05:41:38;;;;;;;;;;;24.80;66.30;;;;;;5034089;28;19923;-88
2022/05/27 05:44:05;;;;;;;;;;;24.90;65.20;;;;;;5034838;28;19939;-88
2022/05/27 05:46:32;;;;;;;;;;;25.00;65.90;;;;;;5053969;28;19992;-88
2022/05/27 05:48:57;;;;;;;;;;;25.40;66.80;;;;;;5038810;28;19913;-88
2022/05/27 05:51:22;;;;;;;;;;;25.80;67.20;;;;;;5052242;28;20364;-88
2022/05/27 05:53:48;;;;;;;;;;;26.30;66.80;;;;;;5053140;28;19913;-87
2022/05/27 05:56:14;;;;;;;;;;;26.70;66.50;;;;;;5028806;28;19966;-88
2022/05/27 05:58:39;;;;;;;;;;;27.20;66.60;;;;;;5045801;28;20421;-87
2022/05/27 06:01:05;;;;;;;;;;;27.70;66.40;;;;;;5034989;28;20406;-88
2022/05/27 06:03:30;;;;;;;;;;;28.00;65.50;;;;;;5048595;28;19912;-87
2022/05/27 06:05:56;;;;;;;;;;;28.30;64.20;;;;;;5050526;28;20001;-87
2022/05/27 06:08:21;;;;;;;;;;;28.40;62.50;;;;;;5052013;28;20329;-87
2022/05/27 06:10:47;;;;;;;;;;;28.50;63.50;;;;;;5034826;28;19921;-87
2022/05/27 06:13:13;;;;;;;;;;;28.60;62.00;;;;;;5039125;28;20004;-87
2022/05/27 06:15:38;;;;;;;;;;;28.70;62.70;;;;;;5054690;28;20368;-88
2022/05/27 06:18:05;;;;;;;;;;;28.80;63.70;;;;;;5027285;28;20035;-88
2022/05/27 06:20:31;;;;;;;;;;;28.90;63.30;;;;;;5052268;28;20434;-85
2022/05/27 06:22:57;;;;;;;;;;;29.00;63.60;;;;;;5051237;28;19916;-86
2022/05/27 06:25:23;;;;;;;;;;;29.30;64.10;;;;;;5050790;28;19983;-86
2022/05/27 06:27:48;;;;;;;;;;;29.70;64.40;;;;;;5050564;28;19920;-86
2022/05/27 06:35:43;;;;;;;;;;;29.80;61.30;;;;;;5050795;28;20422;-86
2022/05/27 06:38:08;;;;;;;;;;;29.80;62.50;;;;;;5049021;28;19920;-86
2022/05/27 06:40:34;;;;;;;;;;;29.90;63.20;;;;;;5056075;28;19932;-86
2022/05/27 06:42:59;;;;;;;;;;;30.10;61.60;;;;;;5055654;28;20293;-86
2022/05/27 06:45:25;;;;;;;;;;;30.10;60.90;;;;;;5035852;28;20327;-87
2022/05/27 06:47:50;;;;;;;;;;;30.10;59.60;;;;;;5035057;28;19916;-87
2022/05/27 06:50:25;;;;;;;;;;;30.30;60.40;;;;;;5055006;28;20261;-86
2022/05/27 06:52:51;;;;;;;;;;;30.60;60.60;;;;;;5055638;28;20380;-86
2022/05/27 06:55:17;;;;;;;;;;;30.90;59.20;;;;;;5055086;28;19924;-86
2022/05/27 06:57:42;;;;;;;;;;;31.30;60.20;;;;;;5056011;28;19912;-86
2022/05/27 07:00:09;;;;;;;;;;;31.70;59.40;;;;;;5037291;28;19928;-87
2022/05/27 07:02:35;;;;;;;;;;;32.20;59.90;;;;;;5031255;28;19939;-87
2022/05/27 07:05:00;;;;;;;;;;;32.60;58.70;;;;;;5054081;28;19917;-87
2022/05/27 07:07:27;;;;;;;;;;;33.10;56.70;;;;;;5035112;28;19916;-86
2022/05/27 07:09:53;;;;;;;;;;;33.40;52.60;;;;;;5054759;28;19999;-86
2022/05/27 07:12:18;;;;;;;;;;;33.60;49.70;;;;;;5052142;28;19956;-87
2022/05/27 07:14:44;;;;;;;;;;;33.90;50.20;;;;;;5036387;28;19916;-86
2022/05/27 07:17:09;;;;;;;;;;;34.30;49.40;;;;;;5033383;28;19939;-87
2022/05/27 07:19:35;;;;;;;;;;;34.30;45.00;;;;;;5045680;28;19994;-86
2022/05/27 07:22:01;;;;;;;;;;;34.10;42.90;;;;;;5036682;28;20012;-87
2022/05/27 07:24:26;;;;;;;;;;;33.70;41.10;;;;;;5053925;28;19916;-86
2022/05/27 07:26:52;;;;;;;;;;;33.30;39.50;;;;;;5033640;28;19936;-87
2022/05/27 07:29:17;;;;;;;;;;;33.30;39.80;;;;;;5030720;28;19923;-86
2022/05/27 07:31:44;;;;;;;;;;;33.20;39.70;;;;;;5054661;28;19917;-87
2022/05/27 07:34:09;;;;;;;;;;;32.90;38.50;;;;;;5053612;28;19917;-86
2022/05/27 07:36:35;;;;;;;;;;;32.60;38.40;;;;;;5029027;28;19956;-86
2022/05/27 07:39:01;;;;;;;;;;;32.50;39.00;;;;;;5035461;28;19913;-86
2022/05/27 07:41:27;;;;;;;;;;;32.30;38.80;;;;;;5053357;28;19921;-86
2022/05/27 07:43:53;;;;;;;;;;;32.00;38.70;;;;;;5054083;28;20007;-86
2022/05/27 07:46:21;;;;;;;;;;;31.70;38.50;;;;;;5053848;28;19917;-86
2022/05/27 07:48:46;;;;;;;;;;;31.30;39.20;;;;;;5052683;28;20264;-86
2022/05/27 07:51:12;;;;;;;;;;;30.90;38.10;;;;;;5052089;28;19984;-85
2022/05/27 07:53:38;;;;;;;;;;;30.60;38.40;;;;;;5050516;28;19920;-87
2022/05/27 07:56:05;;;;;;;;;;;30.40;39.50;;;;;;5034875;28;19920;-87
2022/05/27 07:58:30;;;;;;;;;;;30.40;39.60;;;;;;5040131;28;20409;-87
2022/05/27 08:00:56;;;;;;;;;;;30.40;38.60;;;;;;5030271;28;19970;-86
2022/05/27 08:03:21;;;;;;;;;;;30.50;38.80;;;;;;5037444;28;19956;-86
2022/05/27 08:05:47;;;;;;;;;;;30.70;37.00;;;;;;5055974;28;19940;-86
2022/05/27 08:08:13;;;;;;;;;;;30.80;35.20;;;;;;5054050;28;19920;-85
2022/05/27 08:10:40;;;;;;;;;;;30.80;33.90;;;;;;5055267;28;19921;-87
2022/05/27 08:13:06;;;;;;;;;;;30.70;34.50;;;;;;5054940;28;20280;-87
2022/05/27 08:15:32;;;;;;;;;;;30.60;34.90;;;;;;5037560;28;19916;-87
2022/05/27 08:17:58;;;;;;;;;;;30.80;36.70;;;;;;5054461;28;20266;-85
2022/05/27 08:20:25;;;;;;;;;;;31.50;36.60;;;;;;5055598;28;20432;-86
2022/05/27 08:22:53;;;;;;;;;;;31.90;36.50;;;;;;5037106;28;20337;-87
2022/05/27 08:25:20;;;;;;;;;;;32.40;35.10;;;;;;5037332;28;19916;-86
2022/05/27 08:27:45;;;;;;;;;;;32.90;33.40;;;;;;5055434;28;19913;-87
2022/05/27 08:30:12;;;;;;;;;;;33.40;32.20;;;;;;5037078;28;19929;-86
2022/05/27 08:32:37;;;;;;;;;;;33.80;31.70;;;;;;5037186;28;20081;-86
2022/05/27 08:40:51;;;;;;;;;;;34.10;27.90;;;;;;5054555;28;20418;-86
2022/05/27 08:43:26;;;;;;;;;;;33.80;27.00;;;;;;5054312;28;20296;-87
2022/05/27 08:46:00;;;;;;;;;;;33.80;27.10;;;;;;5054232;28;19952;-87
2022/05/27 08:48:27;;;;;;;;;;;34.20;26.60;;;;;;5035941;28;19951;-87
2022/05/27 08:50:55;;;;;;;;;;;34.60;26.40;;;;;;5036684;28;20001;-87
2022/05/27 08:53:36;;;;;;;;;;;35.00;25.60;;;;;;5036410;28;19913;-86
2022/05/27 09:01:40;;;;;;;;;;;35.20;23.00;;;;;;5054135;28;20046;-87
2022/05/27 09:04:11;;;;;;;;;;;34.90;22.70;;;;;;5053813;28;20028;-86
2022/05/27 09:06:48;;;;;;;;;;;34.90;22.60;;;;;;5036482;28;19935;-86
2022/05/27 09:09:19;;;;;;;;;;;35.10;22.40;;;;;;5054842;28;19925;-86
2022/05/27 09:11:49;;;;;;;;;;;35.30;22.00;;;;;;5036787;28;20334;-85
2022/05/27 09:14:19;;;;;;;;;;;35.60;21.80;;;;;;5036475;28;19921;-86
2022/05/27 09:16:54;;;;;;;;;;;35.90;21.40;;;;;;5054684;28;20067;-86
2022/05/27 09:19:25;;;;;;;;;;;36.10;21.20;;;;;;5053391;28;19924;-86
2022/05/27 09:22:14;;;;;;;;;;;36.40;20.40;;;;;;5036017;28;20261;-86
2022/05/27 09:24:42;;;;;;;;;;;36.60;19.40;;;;;;5054575;28;19966;-86
2022/05/27 09:27:23;;;;;;;;;;;36.70;18.70;;;;;;5036135;28;19913;-86
2022/05/27 09:29:48;;;;;;;;;;;36.70;18.60;;;;;;5035873;28;20280;-86
2022/05/27 09:32:22;;;;;;;;;;;36.90;18.60;;;;;;5035783;28;20011;-86
2022/05/27 09:34:49;;;;;;;;;;;37.20;18.60;;;;;;5054563;28;20249;-87
2022/05/27 09:37:24;;;;;;;;;;;37.00;17.90;;;;;;5054959;28;19917;-87
2022/05/27 09:39:51;;;;;;;;;;;36.80;18.10;;;;;;5053871;28;19916;-87
2022/05/27 09:42:19;;;;;;;;;;;36.80;18.40;;;;;;5036329;28;19923;-87
2022/05/27 09:44:55;;;;;;;;;;;37.00;18.60;;;;;;5036583;28;19917;-87
2022/05/27 09:47:22;;;;;;;;;;;37.20;18.30;;;;;;5054526;28;19962;-87
2022/05/27 09:49:52;;;;;;;;;;;37.30;18.00;;;;;;5054442;28;20284;-87
2022/05/27 09:52:18;;;;;;;;;;;37.10;17.80;;;;;;5020465;28;19916;-86
2022/05/27 09:54:46;;;;;;;;;;;36.50;18.00;;;;;;5036128;28;19967;-88
2022/05/27 09:57:11;;;;;;;;;;;36.20;18.40;;;;;;5038022;28;19993;-86
2022/05/27 09:59:39;;;;;;;;;;;36.30;18.90;;;;;;5035555;28;20383;-87
2022/05/27 10:02:16;;;;;;;;;;;36.70;19.40;;;;;;5056324;28;19924;-87
2022/05/27 10:04:53;;;;;;;;;;;36.80;18.80;;;;;;5036464;28;19944;-87
2022/05/27 10:07:36;;;;;;;;;;;37.10;18.70;;;;;;5055190;28;19917;-87
2022/05/27 10:10:20;;;;;;;;;;;37.30;18.20;;;;;;5036818;28;20044;-87
2022/05/27 10:12:47;;;;;;;;;;;36.80;17.60;;;;;;5052933;28;19921;-87
2022/05/27 10:15:25;;;;;;;;;;;36.10;17.80;;;;;;5057066;28;19958;-86
2022/05/27 10:17:50;;;;;;;;;;;35.40;18.50;;;;;;5054788;28;20284;-86
2022/05/27 10:20:31;;;;;;;;;;;35.10;19.10;;;;;;5053426;28;19912;-86
2022/05/27 10:22:59;;;;;;;;;;;35.20;19.10;;;;;;5036668;28;19921;-86
2022/05/27 10:25:32;;;;;;;;;;;35.40;18.90;;;;;;5053712;28;20357;-87
2022/05/27 10:27:58;;;;;;;;;;;35.70;18.90;;;;;;5049392;28;19920;-87
2022/05/27 10:30:26;;;;;;;;;;;36.20;18.60;;;;;;5035835;28;20292;-87
2022/05/27 10:32:52;;;;;;;;;;;36.60;18.60;;;;;;5035283;28;19936;-87
2022/05/27 10:35:20;;;;;;;;;;;36.70;17.70;;;;;;5035058;28;19917;-86
2022/05/27 10:37:57;;;;;;;;;;;36.80;17.50;;;;;;5050074;28;19923;-87
2022/05/27 10:40:34;;;;;;;;;;;36.80;17.30;;;;;;5035267;28;20012;-87
2022/05/27 10:43:05;;;;;;;;;;;37.20;17.30;;;;;;5035106;28;20584;-87
2022/05/27 10:45:34;;;;;;;;;;;37.30;17.00;;;;;;5053507;28;20007;-87
2022/05/27 10:48:18;;;;;;;;;;;37.50;17.30;;;;;;5035207;28;19913;-87
2022/05/27 10:50:46;;;;;;;;;;;37.60;17.00;;;;;;5035148;28;20415;-88
2022/05/27 10:53:30;;;;;;;;;;;38.00;17.20;;;;;;5053342;28;20011;-87
2022/05/27 10:55:57;;;;;;;;;;;38.30;16.60;;;;;;5033374;28;19917;-88
2022/05/27 11:04:17;;;;;;;;;;;38.80;15.10;;;;;;5053072;28;19920;-87
2022/05/27 11:07:06;;;;;;;;;;;39.10;15.10;;;;;;5024434;28;19917;-86
2022/05/27 11:09:40;;;;;;;;;;;39.20;14.70;;;;;;5039589;28;19916;-87
2022/05/27 11:12:26;;;;;;;;;;;39.40;15.00;;;;;;5034993;28;20242;-85
2022/05/27 11:15:12;;;;;;;;;;;39.20;14.90;;;;;;5034706;28;19915;-86
2022/05/27 11:17:56;;;;;;;;;;;39.00;14.90;;;;;;5051089;28;19921;-86
2022/05/27 11:20:39;;;;;;;;;;;38.40;15.10;;;;;;5034543;28;19920;-88
2022/05/27 11:23:07;;;;;;;;;;;38.20;15.00;;;;;;5017397;28;19917;-87
2022/05/27 11:25:46;;;;;;;;;;;38.30;15.10;;;;;;5034939;28;19913;-88
2022/05/27 11:28:30;;;;;;;;;;;38.60;15.00;;;;;;5055381;28;20242;-88
2022/05/27 11:30:58;;;;;;;;;;;39.00;14.90;;;;;;5055713;28;20400;-88
2022/05/27 11:33:27;;;;;;;;;;;39.20;14.60;;;;;;5056035;28;19913;-86
2022/05/27 11:36:10;;;;;;;;;;;38.80;14.40;;;;;;5026813;28;19913;-86
2022/05/27 11:38:45;;;;;;;;;;;38.80;14.50;;;;;;5018129;28;20021;-86
2022/05/27 11:41:17;;;;;;;;;;;38.70;14.70;;;;;;5052614;28;19917;-87
2022/05/27 11:43:56;;;;;;;;;;;38.70;14.40;;;;;;5055871;28;19959;-87
2022/05/27 11:46:40;;;;;;;;;;;38.50;13.70;;;;;;5035996;28;19921;-86
2022/05/27 11:49:15;;;;;;;;;;;38.40;14.20;;;;;;5040417;28;19920;-86
2022/05/27 11:51:52;;;;;;;;;;;38.60;14.30;;;;;;5036844;28;19970;-87
2022/05/27 11:54:36;;;;;;;;;;;38.60;14.50;;;;;;5037639;28;20301;-86
2022/05/27 11:57:02;;;;;;;;;;;38.70;14.70;;;;;;5048901;28;19920;-86
2022/05/27 11:59:42;;;;;;;;;;;38.80;14.70;;;;;;5037573;28;19921;-87
2022/05/27 12:02:16;;;;;;;;;;;39.00;14.70;;;;;;5037389;28;20412;-87
2022/05/27 12:04:52;;;;;;;;;;;39.20;14.70;;;;;;5037713;28;19923;-87
2022/05/27 12:07:33;;;;;;;;;;;39.40;14.70;;;;;;5055780;28;19920;-87
2022/05/27 12:10:02;;;;;;;;;;;39.60;14.60;;;;;;5055258;28;19921;-87
2022/05/27 12:12:31;;;;;;;;;;;39.80;14.50;;;;;;5055345;28;19950;-87
2022/05/27 12:15:01;;;;;;;;;;;40.00;14.40;;;;;;5055438;28;20017;-88
2022/05/27 12:17:45;;;;;;;;;;;40.30;14.20;;;;;;5055680;28;19990;-88
2022/05/27 12:20:15;;;;;;;;;;;40.30;13.50;;;;;;5055408;28;20017;-88
2022/05/27 12:22:41;;;;;;;;;;;39.80;13.70;;;;;;5033398;28;19924;-88
2022/05/27 12:25:26;;;;;;;;;;;39.30;14.00;;;;;;5035490;28;19905;-88
2022/05/27 12:27:53;;;;;;;;;;;38.90;13.60;;;;;;5035178;28;20387;-87
2022/05/27 12:30:28;;;;;;;;;;;38.80;13.70;;;;;;5055185;28;19924;-88
2022/05/27 12:32:54;;;;;;;;;;;38.70;14.30;;;;;;5020715;28;19971;-88
2022/05/27 12:35:26;;;;;;;;;;;38.70;14.30;;;;;;5053564;28;19917;-87
2022/05/27 12:37:58;;;;;;;;;;;38.70;13.90;;;;;;5053063;28;20371;-88
2022/05/27 12:40:29;;;;;;;;;;;38.60;13.80;;;;;;5054479;28;19921;-88
2022/05/27 12:43:10;;;;;;;;;;;38.30;13.90;;;;;;5054308;28;19925;-87
2022/05/27 12:45:38;;;;;;;;;;;37.30;14.50;;;;;;5054148;28;20028;-85
2022/05/27 12:48:05;;;;;;;;;;;36.70;15.00;;;;;;5032256;28;19924;-86
2022/05/27 12:50:34;;;;;;;;;;;36.70;15.30;;;;;;5033337;28;20469;-87
2022/05/27 12:53:19;;;;;;;;;;;36.40;15.60;;;;;;5046413;28;19958;-86
2022/05/27 13:01:27;;;;;;;;;;;35.50;15.40;;;;;;5054304;28;19923;-85
2022/05/27 13:03:54;;;;;;;;;;;35.30;15.10;;;;;;5054036;28;20035;-86
2022/05/27 13:06:26;;;;;;;;;;;35.40;15.30;;;;;;5034639;28;19913;-86
2022/05/27 13:09:17;;;;;;;;;;;35.70;15.20;;;;;;5053868;28;19984;-87
2022/05/27 13:11:46;;;;;;;;;;;35.90;15.60;;;;;;5013183;28;19919;-86
2022/05/27 13:14:15;;;;;;;;;;;35.70;15.20;;;;;;5053933;28;20017;-87
2022/05/27 13:16:59;;;;;;;;;;;34.90;15.70;;;;;;5052307;28;19951;-86
2022/05/27 13:19:48;;;;;;;;;;;34.40;15.90;;;;;;5033358;28;19937;-87
2022/05/27 13:22:15;;;;;;;;;;;34.60;16.30;;;;;;5037317;28;20019;-87
2022/05/27 13:24:46;;;;;;;;;;;34.30;16.70;;;;;;5053996;28;20008;-86
2022/05/27 13:27:22;;;;;;;;;;;33.70;17.10;;;;;;5052082;28;19917;-87
2022/05/27 13:29:53;;;;;;;;;;;32.80;17.40;;;;;;5036092;28;20387;-86
2022/05/27 13:32:24;;;;;;;;;;;32.70;17.80;;;;;;5056585;28;19919;-88
2022/05/27 13:34:58;;;;;;;;;;;33.00;18.00;;;;;;5054917;28;19940;-87
2022/05/27 13:37:29;;;;;;;;;;;33.50;17.60;;;;;;5052417;28;19974;-87
2022/05/27 13:39:58;;;;;;;;;;;33.80;17.40;;;;;;5049244;28;20352;-86
2022/05/27 13:42:31;;;;;;;;;;;34.10;17.20;;;;;;5034968;28;19917;-86
2022/05/27 13:44:59;;;;;;;;;;;33.90;16.90;;;;;;5052080;28;20391;-87
2022/05/27 13:47:31;;;;;;;;;;;34.00;16.90;;;;;;5044329;28;19924;-86
2022/05/27 13:49:56;;;;;;;;;;;33.50;17.00;;;;;;5023999;28;19964;-87
2022/05/27 13:52:23;;;;;;;;;;;32.70;17.50;;;;;;5021566;28;19913;-86
2022/05/27 13:54:59;;;;;;;;;;;32.10;17.80;;;;;;5036454;28;19923;-86
2022/05/27 13:57:27;;;;;;;;;;;32.10;18.20;;;;;;5032485;28;19924;-87
2022/05/27 13:59:53;;;;;;;;;;;32.30;18.00;;;;;;5053665;28;19936;-86
2022/05/27 14:02:21;;;;;;;;;;;32.40;18.10;;;;;;5054233;28;20355;-87
2022/05/27 14:04:53;;;;;;;;;;;32.30;18.00;;;;;;5034457;28;19917;-87
2022/05/27 14:07:20;;;;;;;;;;;31.60;18.40;;;;;;5030969;28;19920;-87
2022/05/27 14:09:49;;;;;;;;;;;31.80;18.70;;;;;;5051470;28;20019;-87
2022/05/27 14:12:17;;;;;;;;;;;31.80;18.70;;;;;;5035802;28;19916;-87
2022/05/27 14:14:44;;;;;;;;;;;31.00;18.90;;;;;;5033180;28;19993;-86
2022/05/27 14:17:14;;;;;;;;;;;30.50;19.20;;;;;;5033599;28;20012;-88
2022/05/27 14:19:39;;;;;;;;;;;30.20;19.40;;;;;;5031981;28;20035;-86
2022/05/27 14:24:50;;;;;;;;;;;29.30;19.90;;;;;;5053573;28;20012;-85
2022/05/27 14:27:20;;;;;;;;;;;28.80;20.50;;;;;;5052028;28;19920;-87
2022/05/27 14:29:46;;;;;;;;;;;28.40;20.90;;;;;;5053375;28;19990;-87
2022/05/27 14:32:15;;;;;;;;;;;28.00;21.00;;;;;;5052965;28;19913;-87
2022/05/27 14:34:41;;;;;;;;;;;27.80;21.40;;;;;;5036476;28;19924;-87
2022/05/27 14:37:30;;;;;;;;;;;27.70;21.80;;;;;;5054618;28;20325;-87
2022/05/27 14:39:58;;;;;;;;;;;27.50;21.90;;;;;;5045139;28;19924;-88
2022/05/27 14:42:24;;;;;;;;;;;27.20;22.30;;;;;;5045009;28;20258;-88
2022/05/27 14:44:50;;;;;;;;;;;27.00;22.50;;;;;;5050601;28;19924;-87
2022/05/27 14:47:27;;;;;;;;;;;26.90;22.70;;;;;;5052426;28;19913;-87
2022/05/27 14:49:53;;;;;;;;;;;26.80;23.00;;;;;;5050268;28;19948;-87
2022/05/27 14:52:30;;;;;;;;;;;26.70;23.30;;;;;;5035726;28;19919;-87
2022/05/27 14:55:01;;;;;;;;;;;26.80;23.40;;;;;;5035078;28;19917;-86
2022/05/27 14:57:32;;;;;;;;;;;26.70;23.40;;;;;;5034189;28;19913;-86
2022/05/27 15:00:07;;;;;;;;;;;26.50;23.80;;;;;;5036978;28;19927;-87
2022/05/27 15:02:39;;;;;;;;;;;26.50;24.20;;;;;;5043744;28;20268;-88
2022/05/27 15:05:07;;;;;;;;;;;26.40;24.30;;;;;;5052528;28;19972;-88